sensor_id;sensor_type;location;lat;lon;timestamp;temperature;humidity
10010;DHT22;5044;48.652;9.250;2024-03-02T02:35:28;3.70;99.90
10010;DHT22;5044;48.652;9.250;2024-03-02T02:38:01;3.80;99.90
10010;DHT22;5044;48.652;9.250;2024-03-02T02:40:31;3.50;99.90
10010;DHT22;5044;48.652;9.250;2024-03-02T02:43:05;3.40;99.90
10010;DHT22;5044;48.652;9.250;2024-03-02T02:45:39;3.40;99.90
10010;DHT22;5044;48.652;9.250;2024-03-02T02:48:13;3.20;99.90
10010;DHT22;5044;48.652;9.250;2024-03-02T02:50:52;3.30;99.90
10010;DHT22;5044;48.652;9.250;2024-03-02T13:38:06;19.30;54.70
10010;DHT22;5044;48.652;9.250;2024-03-02T13:45:01;19.50;57.10
10010;DHT22;5044;48.652;9.250;2024-03-02T13:47:16;19.30;54.60
10010;DHT22;5044;48.652;9.250;2024-03-02T13:49:43;19.30;55.60
10010;DHT22;5044;48.652;9.250;2024-03-02T13:52:13;19.60;55.80
10010;DHT22;5044;48.652;9.250;2024-03-02T13:54:42;18.60;51.10
10010;DHT22;5044;48.652;9.250;2024-03-02T13:57:10;17.70;50.40
10010;DHT22;5044;48.652;9.250;2024-03-02T13:59:38;18.20;57.70
10010;DHT22;5044;48.652;9.250;2024-03-02T14:02:05;18.70;58.80
10010;DHT22;5044;48.652;9.250;2024-03-02T14:04:36;19.20;65.80
10010;DHT22;5044;48.652;9.250;2024-03-02T14:07:24;19.30;58.70
10010;DHT22;5044;48.652;9.250;2024-03-02T14:09:55;19.20;58.40
10010;DHT22;5044;48.652;9.250;2024-03-02T14:12:22;19.10;57.00
10010;DHT22;5044;48.652;9.250;2024-03-02T14:14:51;19.10;60.20
10010;DHT22;5044;48.652;9.250;2024-03-02T14:17:27;18.90;59.90
10010;DHT22;5044;48.652;9.250;2024-03-02T14:19:55;19.00;63.40
10010;DHT22;5044;48.652;9.250;2024-03-02T14:22:22;19.10;58.60
10010;DHT22;5044;48.652;9.250;2024-03-02T14:24:49;18.80;57.80
10010;DHT22;5044;48.652;9.250;2024-03-02T14:27:18;18.40;56.90
10010;DHT22;5044;48.652;9.250;2024-03-02T14:29:46;18.60;58.80
10010;DHT22;5044;48.652;9.250;2024-03-02T14:32:17;18.70;60.80
10010;DHT22;5044;48.652;9.250;2024-03-02T14:34:50;18.90;58.00
10010;DHT22;5044;48.652;9.250;2024-03-02T14:37:25;19.10;62.00
10010;DHT22;5044;48.652;9.250;2024-03-02T14:39:52;19.00;62.60
10010;DHT22;5044;48.652;9.250;2024-03-02T14:42:23;18.90;61.60
10010;DHT22;5044;48.652;9.250;2024-03-02T14:44:53;18.80;63.20
10010;DHT22;5044;48.652;9.250;2024-03-02T14:47:48;18.70;62.50
10010;DHT22;5044;48.652;9.250;2024-03-02T14:50:32;18.60;63.30
10010;DHT22;5044;48.652;9.250;2024-03-02T14:53:11;18.40;62.40
10010;DHT22;5044;48.652;9.250;2024-03-02T14:55:51;18.40;58.00
10010;DHT22;5044;48.652;9.250;2024-03-02T14:58:22;18.40;63.50
10010;DHT22;5044;48.652;9.250;2024-03-02T15:01:02;18.40;67.80
10010;DHT22;5044;48.652;9.250;2024-03-02T15:03:33;18.40;65.40
10010;DHT22;5044;48.652;9.250;2024-03-02T15:06:10;18.40;67.20
10010;DHT22;5044;48.652;9.250;2024-03-02T15:08:59;18.20;63.60
10010;DHT22;5044;48.652;9.250;2024-03-02T15:11:37;17.90;62.80
10010;DHT22;5044;48.652;9.250;2024-03-02T15:14:42;17.80;63.30
10010;DHT22;5044;48.652;9.250;2024-03-02T15:17:12;17.40;59.50
10010;DHT22;5044;48.652;9.250;2024-03-02T15:19:45;17.10;58.00
10010;DHT22;5044;48.652;9.250;2024-03-02T15:22:18;17.10;58.10
10010;DHT22;5044;48.652;9.250;2024-03-02T15:24:48;16.70;56.30
10010;DHT22;5044;48.652;9.250;2024-03-02T15:27:16;16.70;63.00
10010;DHT22;5044;48.652;9.250;2024-03-02T15:29:49;16.40;60.90
10010;DHT22;5044;48.652;9.250;2024-03-02T15:32:17;16.10;59.80
10010;DHT22;5044;48.652;9.250;2024-03-02T15:34:52;15.90;63.10
10010;DHT22;5044;48.652;9.250;2024-03-02T15:37:21;15.90;67.20
10010;DHT22;5044;48.652;9.250;2024-03-02T15:39:56;15.60;64.40
10010;DHT22;5044;48.652;9.250;2024-03-02T15:42:45;15.60;69.50
10010;DHT22;5044;48.652;9.250;2024-03-02T15:48:52;15.40;70.90
10010;DHT22;5044;48.652;9.250;2024-03-02T17:21:08;12.20;97.20
10010;DHT22;5044;48.652;9.250;2024-03-02T17:25:25;12.30;99.90
10010;DHT22;5044;48.652;9.250;2024-03-02T17:32:03;12.00;99.90
10010;DHT22;5044;48.652;9.250;2024-03-02T17:34:02;11.90;99.90
10010;DHT22;5044;48.652;9.250;2024-03-02T17:46:10;11.60;99.90
10010;DHT22;5044;48.652;9.250;2024-03-02T17:49:14;11.60;99.90
10010;DHT22;5044;48.652;9.250;2024-03-02T17:52:01;11.50;99.90
10010;DHT22;5044;48.652;9.250;2024-03-02T17:55:57;11.30;99.90
10010;DHT22;5044;48.652;9.250;2024-03-02T18:01:19;11.20;99.90
10010;DHT22;5044;48.652;9.250;2024-03-02T18:03:54;11.10;99.90
10010;DHT22;5044;48.652;9.250;2024-03-02T18:37:28;10.70;99.90
10010;DHT22;5044;48.652;9.250;2024-03-02T18:39:55;10.60;99.90
10010;DHT22;5044;48.652;9.250;2024-03-02T18:42:23;10.50;99.90
10010;DHT22;5044;48.652;9.250;2024-03-02T18:44:51;10.60;99.90
10010;DHT22;5044;48.652;9.250;2024-03-02T18:47:18;10.50;99.90
10010;DHT22;5044;48.652;9.250;2024-03-02T18:49:45;10.40;99.90
10010;DHT22;5044;48.652;9.250;2024-03-02T18:52:12;10.50;99.90
10010;DHT22;5044;48.652;9.250;2024-03-02T18:54:42;10.30;99.90
10010;DHT22;5044;48.652;9.250;2024-03-02T18:57:09;10.30;99.90
10010;DHT22;5044;48.652;9.250;2024-03-02T18:59:38;10.30;99.90
10010;DHT22;5044;48.652;9.250;2024-03-02T19:02:09;10.30;99.90
10010;DHT22;5044;48.652;9.250;2024-03-02T19:04:36;10.20;99.90
10010;DHT22;5044;48.652;9.250;2024-03-02T19:07:04;10.30;99.90
10010;DHT22;5044;48.652;9.250;2024-03-02T19:09:31;10.10;99.90
10010;DHT22;5044;48.652;9.250;2024-03-02T19:11:59;10.00;99.90
10010;DHT22;5044;48.652;9.250;2024-03-02T19:14:27;10.00;99.90
10010;DHT22;5044;48.652;9.250;2024-03-02T19:16:54;10.00;99.90
10010;DHT22;5044;48.652;9.250;2024-03-02T19:19:21;10.10;99.90
10010;DHT22;5044;48.652;9.250;2024-03-02T19:21:47;10.10;99.90
10010;DHT22;5044;48.652;9.250;2024-03-02T19:24:15;10.00;99.90
10010;DHT22;5044;48.652;9.250;2024-03-02T19:26:42;10.10;99.90
10010;DHT22;5044;48.652;9.250;2024-03-02T19:29:10;10.00;99.90
10010;DHT22;5044;48.652;9.250;2024-03-02T19:31:37;10.10;99.90
10010;DHT22;5044;48.652;9.250;2024-03-02T19:34:06;9.90;99.90
10010;DHT22;5044;48.652;9.250;2024-03-02T19:36:33;9.80;99.90
10010;DHT22;5044;48.652;9.250;2024-03-02T19:39:00;9.80;99.90
10010;DHT22;5044;48.652;9.250;2024-03-02T19:41:28;9.80;99.90
10010;DHT22;5044;48.652;9.250;2024-03-02T19:43:56;9.80;99.90
10010;DHT22;5044;48.652;9.250;2024-03-02T19:46:28;9.80;99.90
10010;DHT22;5044;48.652;9.250;2024-03-02T19:48:55;9.70;99.90
10010;DHT22;5044;48.652;9.250;2024-03-02T19:51:23;9.70;99.90
10010;DHT22;5044;48.652;9.250;2024-03-02T19:53:51;9.60;99.90
10010;DHT22;5044;48.652;9.250;2024-03-02T19:56:18;9.50;99.90
10010;DHT22;5044;48.652;9.250;2024-03-02T19:58:45;9.50;99.90
10010;DHT22;5044;48.652;9.250;2024-03-02T20:01:12;9.30;99.90
10010;DHT22;5044;48.652;9.250;2024-03-02T20:03:45;9.40;99.90
10010;DHT22;5044;48.652;9.250;2024-03-02T20:06:15;9.30;99.90
10010;DHT22;5044;48.652;9.250;2024-03-02T20:08:42;9.30;99.90
10010;DHT22;5044;48.652;9.250;2024-03-02T20:11:09;9.30;99.90
10010;DHT22;5044;48.652;9.250;2024-03-02T20:13:39;9.20;99.90
10010;DHT22;5044;48.652;9.250;2024-03-02T20:16:07;9.20;99.90
10010;DHT22;5044;48.652;9.250;2024-03-02T20:18:35;9.20;99.90
10010;DHT22;5044;48.652;9.250;2024-03-02T20:21:04;9.00;99.90
10010;DHT22;5044;48.652;9.250;2024-03-02T20:23:32;9.00;99.90
10010;DHT22;5044;48.652;9.250;2024-03-02T20:25:58;9.00;99.90
10010;DHT22;5044;48.652;9.250;2024-03-02T20:28:25;9.20;99.90
10010;DHT22;5044;48.652;9.250;2024-03-02T20:30:53;9.20;99.90
10010;DHT22;5044;48.652;9.250;2024-03-02T20:33:20;8.80;99.90
10010;DHT22;5044;48.652;9.250;2024-03-02T20:35:48;8.80;99.90
10010;DHT22;5044;48.652;9.250;2024-03-02T20:38:16;8.90;99.90
10010;DHT22;5044;48.652;9.250;2024-03-02T20:40:43;8.40;99.90
10010;DHT22;5044;48.652;9.250;2024-03-02T20:43:16;8.70;99.90
10010;DHT22;5044;48.652;9.250;2024-03-02T20:45:43;8.60;99.90
10010;DHT22;5044;48.652;9.250;2024-03-02T20:48:11;8.60;99.90
10010;DHT22;5044;48.652;9.250;2024-03-02T20:50:38;8.50;99.90
10010;DHT22;5044;48.652;9.250;2024-03-02T20:53:06;8.60;99.90
10010;DHT22;5044;48.652;9.250;2024-03-02T20:55:37;8.60;99.90
10010;DHT22;5044;48.652;9.250;2024-03-02T20:58:04;8.50;99.90
10010;DHT22;5044;48.652;9.250;2024-03-02T21:00:31;8.50;99.90
10010;DHT22;5044;48.652;9.250;2024-03-02T21:02:58;8.50;99.90
10010;DHT22;5044;48.652;9.250;2024-03-02T21:05:25;8.50;99.90
10010;DHT22;5044;48.652;9.250;2024-03-02T21:07:52;8.40;99.90
10010;DHT22;5044;48.652;9.250;2024-03-02T21:10:20;8.30;99.90
10010;DHT22;5044;48.652;9.250;2024-03-02T21:12:49;8.30;99.90
10010;DHT22;5044;48.652;9.250;2024-03-02T21:15:16;8.20;99.90
10010;DHT22;5044;48.652;9.250;2024-03-02T21:17:44;8.20;99.90
10010;DHT22;5044;48.652;9.250;2024-03-02T21:20:11;8.20;99.90
10010;DHT22;5044;48.652;9.250;2024-03-02T21:22:38;8.10;99.90
10010;DHT22;5044;48.652;9.250;2024-03-02T21:25:09;8.10;99.90
10010;DHT22;5044;48.652;9.250;2024-03-02T21:27:37;8.10;99.90
10010;DHT22;5044;48.652;9.250;2024-03-02T21:30:09;8.10;99.90
10010;DHT22;5044;48.652;9.250;2024-03-02T21:32:37;8.10;99.90
10010;DHT22;5044;48.652;9.250;2024-03-02T21:35:05;8.10;99.90
10010;DHT22;5044;48.652;9.250;2024-03-02T21:37:33;8.10;99.90
10010;DHT22;5044;48.652;9.250;2024-03-02T21:40:00;8.10;99.90
10010;DHT22;5044;48.652;9.250;2024-03-02T21:42:28;8.20;99.90
10010;DHT22;5044;48.652;9.250;2024-03-02T21:44:56;8.10;99.90
10010;DHT22;5044;48.652;9.250;2024-03-02T21:47:24;8.10;99.90
10010;DHT22;5044;48.652;9.250;2024-03-02T21:49:52;8.10;99.90
10010;DHT22;5044;48.652;9.250;2024-03-02T21:52:19;8.50;99.90
10010;DHT22;5044;48.652;9.250;2024-03-02T21:54:47;8.10;99.90
10010;DHT22;5044;48.652;9.250;2024-03-02T21:57:14;8.10;99.90
10010;DHT22;5044;48.652;9.250;2024-03-02T21:59:46;8.40;99.90
10010;DHT22;5044;48.652;9.250;2024-03-02T22:02:14;8.00;99.90
10010;DHT22;5044;48.652;9.250;2024-03-02T22:04:43;8.00;99.90
10010;DHT22;5044;48.652;9.250;2024-03-02T22:07:10;8.00;99.90
10010;DHT22;5044;48.652;9.250;2024-03-02T22:09:37;8.00;99.90
10010;DHT22;5044;48.652;9.250;2024-03-02T22:12:04;8.00;99.90
10010;DHT22;5044;48.652;9.250;2024-03-02T22:14:32;7.90;99.90
10010;DHT22;5044;48.652;9.250;2024-03-02T22:16:59;7.80;99.90
10010;DHT22;5044;48.652;9.250;2024-03-02T22:19:26;7.80;99.90
10010;DHT22;5044;48.652;9.250;2024-03-02T22:21:55;7.90;99.90
10010;DHT22;5044;48.652;9.250;2024-03-02T22:24:22;7.70;99.90
10010;DHT22;5044;48.652;9.250;2024-03-02T22:26:50;7.60;99.90
10010;DHT22;5044;48.652;9.250;2024-03-02T22:29:17;7.60;99.90
10010;DHT22;5044;48.652;9.250;2024-03-02T22:31:45;7.60;99.90
10010;DHT22;5044;48.652;9.250;2024-03-02T22:34:12;7.50;99.90
10010;DHT22;5044;48.652;9.250;2024-03-02T22:36:41;7.50;99.90
10010;DHT22;5044;48.652;9.250;2024-03-02T22:39:09;7.50;99.90
10010;DHT22;5044;48.652;9.250;2024-03-02T22:41:37;7.50;99.90
10010;DHT22;5044;48.652;9.250;2024-03-02T22:44:04;7.60;99.90
10010;DHT22;5044;48.652;9.250;2024-03-02T22:46:31;7.50;99.90
10010;DHT22;5044;48.652;9.250;2024-03-02T22:48:58;7.40;99.90
10010;DHT22;5044;48.652;9.250;2024-03-02T22:51:26;7.40;99.90
10010;DHT22;5044;48.652;9.250;2024-03-02T22:53:53;7.40;99.90
10010;DHT22;5044;48.652;9.250;2024-03-02T22:56:22;7.40;99.90
10010;DHT22;5044;48.652;9.250;2024-03-02T22:58:49;7.30;99.90
10010;DHT22;5044;48.652;9.250;2024-03-02T23:01:16;7.30;99.90
10010;DHT22;5044;48.652;9.250;2024-03-02T23:03:47;7.30;99.90
10010;DHT22;5044;48.652;9.250;2024-03-02T23:06:14;7.30;99.90
10010;DHT22;5044;48.652;9.250;2024-03-02T23:08:41;7.30;99.90
10010;DHT22;5044;48.652;9.250;2024-03-02T23:11:08;7.20;99.90
10010;DHT22;5044;48.652;9.250;2024-03-02T23:13:38;7.20;99.90
10010;DHT22;5044;48.652;9.250;2024-03-02T23:16:05;7.20;99.90
10010;DHT22;5044;48.652;9.250;2024-03-02T23:18:32;7.20;99.90
10010;DHT22;5044;48.652;9.250;2024-03-02T23:21:00;7.10;99.90
10010;DHT22;5044;48.652;9.250;2024-03-02T23:23:28;7.10;99.90
10010;DHT22;5044;48.652;9.250;2024-03-02T23:25:55;7.00;99.90
10010;DHT22;5044;48.652;9.250;2024-03-02T23:28:22;7.00;99.90
10010;DHT22;5044;48.652;9.250;2024-03-02T23:30:52;7.00;99.90
10010;DHT22;5044;48.652;9.250;2024-03-02T23:33:19;7.00;99.90
10010;DHT22;5044;48.652;9.250;2024-03-02T23:35:47;7.00;99.90
10010;DHT22;5044;48.652;9.250;2024-03-02T23:38:14;7.00;99.90
10010;DHT22;5044;48.652;9.250;2024-03-02T23:40:41;7.00;99.90
10010;DHT22;5044;48.652;9.250;2024-03-02T23:43:33;7.00;99.90
10010;DHT22;5044;48.652;9.250;2024-03-02T23:46:04;6.90;99.90
10010;DHT22;5044;48.652;9.250;2024-03-02T23:48:36;7.00;99.90
10010;DHT22;5044;48.652;9.250;2024-03-02T23:51:06;6.90;99.90
10010;DHT22;5044;48.652;9.250;2024-03-02T23:53:33;6.90;99.90
10010;DHT22;5044;48.652;9.250;2024-03-02T23:56:07;6.90;99.90
10010;DHT22;5044;48.652;9.250;2024-03-02T23:58:35;6.80;99.90
